createdAt,value
2018-06-02T00:01:23.522Z,100651
2018-06-02T00:04:06.346Z,100648
2018-06-02T00:06:38.432Z,100642
2018-06-02T00:09:06.680Z,100646
2018-06-02T00:11:34.862Z,100665
2018-06-02T00:14:03.047Z,100649
2018-06-02T00:16:31.368Z,100651
2018-06-02T00:18:59.606Z,100655
2018-06-02T00:21:27.757Z,100649
2018-06-02T00:23:55.911Z,100651
2018-06-02T00:26:24.856Z,100649
2018-06-02T00:28:53.820Z,100640
2018-06-02T00:31:21.995Z,100649
2018-06-02T00:33:50.189Z,100650
2018-06-02T00:36:18.484Z,100647
2018-06-02T00:38:46.845Z,100644
2018-06-02T00:41:15.199Z,100648
2018-06-02T00:43:43.383Z,100653
2018-06-02T00:46:11.591Z,100654
2018-06-02T00:48:39.802Z,100655
2018-06-02T00:51:08.736Z,100655
2018-06-02T00:53:36.885Z,100650
2018-06-02T00:56:05.089Z,100648
2018-06-02T00:58:33.475Z,100652
2018-06-02T01:01:01.738Z,100652
2018-06-02T01:03:29.905Z,100648
2018-06-02T01:05:58.082Z,100636
2018-06-02T01:08:26.249Z,100640
2018-06-02T01:10:54.661Z,100639
2018-06-02T01:13:22.826Z,100646
2018-06-02T01:15:51.002Z,100638
2018-06-02T01:18:19.251Z,100640
2018-06-02T01:20:48.769Z,100648
2018-06-02T01:23:16.889Z,100645
2018-06-02T01:31:44.883Z,100632
2018-06-02T01:34:13.137Z,100632
2018-06-02T01:36:41.387Z,100631
2018-06-02T01:39:15.127Z,100634
2018-06-02T01:44:34.621Z,100639
2018-06-02T01:47:04.761Z,100640
2018-06-02T01:52:33.467Z,100655
2018-06-02T01:55:14.136Z,100645
2018-06-02T01:57:42.345Z,100646
2018-06-02T02:00:10.500Z,100640
2018-06-02T02:02:38.681Z,100641
2018-06-02T02:05:33.737Z,100644
2018-06-02T02:11:39.114Z,100644
2018-06-02T02:14:16.456Z,100637
2018-06-02T02:16:51.123Z,100632
2018-06-02T02:22:34.733Z,100630
2018-06-02T02:25:04.021Z,100628
2018-06-02T02:27:33.633Z,100625
2018-06-02T02:37:16.340Z,100633
2018-06-02T02:39:45.991Z,100625
2018-06-02T02:42:19.592Z,100634
2018-06-02T02:59:38.795Z,100655
2018-06-02T03:05:18.691Z,100664
2018-06-02T03:07:48.640Z,100666
2018-06-02T03:10:41.568Z,100663
2018-06-02T03:19:10.118Z,100668
2018-06-02T03:21:39.702Z,100679
2018-06-02T03:24:09.107Z,100672
2018-06-02T03:26:37.288Z,100671
2018-06-02T03:29:05.497Z,100670
2018-06-02T03:31:45.994Z,100683
2018-06-02T03:34:14.269Z,100683
2018-06-02T03:36:44.619Z,100679
2018-06-02T03:39:14.487Z,100680
2018-06-02T03:42:02.636Z,100681
2018-06-02T03:45:00.531Z,100689
2018-06-02T03:47:52.727Z,100681
2018-06-02T03:50:20.903Z,100691
2018-06-02T03:52:50.661Z,100686
2018-06-02T03:55:18.826Z,100690
2018-06-02T03:57:47.073Z,100695
2018-06-02T04:00:15.235Z,100691
2018-06-02T04:02:44.271Z,100691
2018-06-02T04:05:12.480Z,100695
2018-06-02T04:07:40.727Z,100692
2018-06-02T04:10:08.948Z,100699
2018-06-02T04:12:37.916Z,100693
2018-06-02T04:15:06.113Z,100702
2018-06-02T04:17:35.048Z,100707
2018-06-02T04:20:03.216Z,100706
2018-06-02T04:22:31.382Z,100707
2018-06-02T04:24:59.609Z,100706
2018-06-02T04:27:27.799Z,100734
2018-06-02T04:29:56.737Z,100706
2018-06-02T04:32:24.895Z,100702
2018-06-02T04:34:53.112Z,100701
2018-06-02T04:37:21.309Z,100698
2018-06-02T04:39:50.259Z,100691
2018-06-02T04:42:18.467Z,100698
2018-06-02T04:44:47.413Z,100692
2018-06-02T04:47:15.582Z,100699
2018-06-02T04:49:43.793Z,100701
2018-06-02T04:52:11.948Z,100701
2018-06-02T04:54:40.113Z,100707
2018-06-02T04:57:08.274Z,100710
2018-06-02T04:59:36.463Z,100713
2018-06-02T05:02:04.631Z,100702
2018-06-02T05:04:32.811Z,100708
2018-06-02T05:07:00.968Z,100709
2018-06-02T05:09:29.161Z,100713
2018-06-02T05:11:57.324Z,100714
2018-06-02T05:14:25.512Z,100718
2018-06-02T05:16:53.693Z,100715
2018-06-02T05:19:21.864Z,100719
2018-06-02T05:21:50.050Z,100724
2018-06-02T05:24:18.218Z,100729
2018-06-02T05:26:47.191Z,100731
2018-06-02T05:29:15.437Z,100744
2018-06-02T05:31:43.561Z,100741
2018-06-02T05:34:12.500Z,100750
2018-06-02T05:36:40.691Z,100753
2018-06-02T05:39:08.858Z,100755
2018-06-02T05:41:37.074Z,100743
2018-06-02T05:44:06.014Z,100746
2018-06-02T05:46:34.212Z,100748
2018-06-02T05:49:02.368Z,100746
2018-06-02T05:51:30.578Z,100750
2018-06-02T05:53:58.744Z,100750
2018-06-02T05:56:26.925Z,100748
2018-06-02T05:58:55.081Z,100744
2018-06-02T06:01:23.273Z,100751
2018-06-02T06:03:51.472Z,100747
2018-06-02T06:06:19.634Z,100750
2018-06-02T06:08:47.785Z,100751
2018-06-02T06:11:15.956Z,100760
2018-06-02T06:13:44.114Z,100765
2018-06-02T06:16:12.273Z,100762
2018-06-02T06:18:40.441Z,100759
2018-06-02T06:21:08.615Z,100770
2018-06-02T06:23:36.776Z,100775
2018-06-02T06:26:04.955Z,100786
2018-06-02T06:28:33.144Z,100797
2018-06-02T06:31:01.319Z,100799
2018-06-02T06:33:29.489Z,100783
2018-06-02T06:35:57.657Z,100777
2018-06-02T06:38:25.871Z,100767
2018-06-02T06:40:54.860Z,100759
2018-06-02T06:43:23.021Z,100758
2018-06-02T06:45:52.961Z,100792
2018-06-02T06:48:21.899Z,100748
2018-06-02T06:50:50.089Z,100754
2018-06-02T06:53:18.250Z,100761
2018-06-02T06:55:46.441Z,100762
2018-06-02T06:58:14.683Z,100764
2018-06-02T07:00:42.847Z,100763
2018-06-02T07:03:11.031Z,100765
2018-06-02T07:05:39.260Z,100764
2018-06-02T07:08:08.203Z,100769
2018-06-02T07:10:36.382Z,100780
2018-06-02T07:13:04.589Z,100771
2018-06-02T07:15:33.295Z,100785
2018-06-02T07:18:01.492Z,100785
2018-06-02T07:20:29.650Z,100784
2018-06-02T07:22:57.838Z,100789
2018-06-02T07:25:26.018Z,100785
2018-06-02T07:27:54.180Z,100784
2018-06-02T07:30:22.349Z,100783
2018-06-02T07:32:50.537Z,100784
2018-06-02T07:35:18.687Z,100775
2018-06-02T07:37:46.882Z,100779
2018-06-02T07:40:15.933Z,100776
2018-06-02T07:42:44.867Z,100769
2018-06-02T07:45:13.057Z,100775
2018-06-02T07:47:41.221Z,100789
2018-06-02T07:50:09.441Z,100789
2018-06-02T07:52:37.774Z,100792
2018-06-02T07:55:05.949Z,100771
2018-06-02T07:57:34.239Z,100781
2018-06-02T08:00:02.446Z,100783
2018-06-02T08:02:31.386Z,100784
2018-06-02T08:04:59.542Z,100780
2018-06-02T08:07:28.514Z,100781
2018-06-02T08:09:56.813Z,100792
2018-06-02T08:12:24.993Z,100787
2018-06-02T08:14:53.184Z,100784
2018-06-02T08:17:21.346Z,100782
2018-06-02T08:19:50.294Z,100784
2018-06-02T08:22:19.255Z,100791
2018-06-02T08:24:47.514Z,100791
2018-06-02T08:27:19.870Z,100791
2018-06-02T08:29:48.391Z,100790
2018-06-02T08:32:16.623Z,100792
2018-06-02T08:34:44.992Z,100798
2018-06-02T08:37:13.254Z,100793
2018-06-02T08:39:41.566Z,100803
2018-06-02T08:42:09.728Z,100804
2018-06-02T08:44:39.088Z,100804
2018-06-02T08:47:08.011Z,100805
2018-06-02T08:49:36.237Z,100805
2018-06-02T08:52:04.475Z,100813
2018-06-02T08:54:32.633Z,100801
2018-06-02T08:57:00.792Z,100814
2018-06-02T08:59:28.953Z,100811
2018-06-02T09:01:57.859Z,100813
2018-06-02T09:04:26.084Z,100814
2018-06-02T09:06:54.284Z,100815
2018-06-02T09:09:23.233Z,100820
2018-06-02T09:11:52.121Z,100816
2018-06-02T09:14:20.272Z,100819
2018-06-02T09:16:48.451Z,100822
2018-06-02T09:19:16.673Z,100819
2018-06-02T09:21:44.884Z,100820
2018-06-02T09:24:13.143Z,100831
2018-06-02T09:26:41.300Z,100834
2018-06-02T09:29:10.249Z,100844
2018-06-02T09:31:38.402Z,100844
2018-06-02T09:34:06.579Z,100838
2018-06-02T09:36:34.767Z,100836
2018-06-02T09:39:03.033Z,100845
2018-06-02T09:41:31.456Z,100836
2018-06-02T09:44:00.479Z,100843
2018-06-02T09:46:28.814Z,100845
2018-06-02T09:48:56.979Z,100843
2018-06-02T09:51:25.157Z,100849
2018-06-02T09:53:53.322Z,100846
2018-06-02T09:56:21.503Z,100849
2018-06-02T09:58:49.723Z,100848
2018-06-02T10:01:17.884Z,100846
2018-06-02T10:03:46.812Z,100854
2018-06-02T10:06:14.991Z,100855
2018-06-02T10:08:43.173Z,100854
2018-06-02T10:11:11.456Z,100857
2018-06-02T10:13:39.648Z,100854
2018-06-02T10:16:07.948Z,100861
2018-06-02T10:18:36.912Z,100862
2018-06-02T10:21:05.328Z,100857
2018-06-02T10:23:38.350Z,100872
2018-06-02T10:26:08.847Z,100864
2018-06-02T10:28:37.397Z,100860
2018-06-02T10:31:07.272Z,100856
2018-06-02T10:33:35.504Z,100859
2018-06-02T10:36:03.675Z,100857
2018-06-02T10:38:31.829Z,100865
2018-06-02T10:41:00.966Z,100864
2018-06-02T10:43:29.210Z,100860
2018-06-02T10:45:58.713Z,100864
2018-06-02T10:48:26.981Z,100867
2018-06-02T10:50:55.259Z,100879
2018-06-02T10:53:25.939Z,100873
2018-06-02T10:55:54.299Z,100874
2018-06-02T10:58:22.509Z,100868
2018-06-02T11:00:50.798Z,100875
2018-06-02T11:03:18.951Z,100876
2018-06-02T11:05:47.163Z,100872
2018-06-02T11:08:16.091Z,100877
2018-06-02T11:10:44.250Z,100879
2018-06-02T11:13:13.160Z,100871
2018-06-02T11:15:41.452Z,100881
2018-06-02T11:18:09.671Z,100877
2018-06-02T11:20:38.591Z,100873
2018-06-02T11:23:06.779Z,100871
2018-06-02T11:25:34.939Z,100873
2018-06-02T11:28:03.100Z,100880
2018-06-02T11:30:31.375Z,100883
2018-06-02T11:32:59.533Z,100878
2018-06-02T11:35:28.142Z,100877
2018-06-02T11:37:56.313Z,100870
2018-06-02T11:40:24.556Z,100890
2018-06-02T11:42:53.541Z,100879
2018-06-02T11:45:23.316Z,100881
2018-06-02T11:47:52.103Z,100885
2018-06-02T11:50:20.277Z,100879
2018-06-02T11:55:52.859Z,100882
2018-06-02T11:58:21.091Z,100881
2018-06-02T12:01:06.680Z,100891
2018-06-02T12:03:47.335Z,100894
2018-06-02T12:06:31.968Z,100893
2018-06-02T12:09:14.522Z,100847
2018-06-02T12:15:07.820Z,100891
2018-06-02T12:17:52.436Z,100894
2018-06-02T12:20:46.274Z,100927
2018-06-02T12:23:27.896Z,100901
2018-06-02T12:26:22.516Z,100900
2018-06-02T12:28:57.826Z,100908
2018-06-02T12:41:15.439Z,100904
2018-06-02T12:43:56.884Z,100902
2018-06-02T12:49:27.003Z,100795
2018-06-02T12:55:26.525Z,100891
2018-06-02T12:57:57.948Z,100903
2018-06-02T13:00:48.074Z,100899
2018-06-02T13:03:27.042Z,100898
2018-06-02T13:21:31.649Z,100907
2018-06-02T13:27:20.679Z,100902
2018-06-02T13:40:22.305Z,100906
2018-06-02T13:49:00.128Z,100895
2018-06-02T13:51:49.191Z,100895
2018-06-02T13:54:23.853Z,100903
2018-06-02T13:57:01.378Z,100892
2018-06-02T13:59:47.435Z,100897
2018-06-02T14:02:18.687Z,100904
2018-06-02T14:04:50.480Z,100903
2018-06-02T14:07:24.580Z,100893
2018-06-02T14:09:53.511Z,100897
2018-06-02T14:12:22.616Z,100898
2018-06-02T14:14:54.755Z,100894
2018-06-02T14:17:26.326Z,100891
2018-06-02T14:19:58.974Z,100888
2018-06-02T14:22:34.393Z,100887
2018-06-02T14:25:02.564Z,100884
2018-06-02T14:27:30.748Z,100885
2018-06-02T14:29:59.679Z,100878
2018-06-02T14:32:27.840Z,100875
2018-06-02T14:34:56.141Z,100881
2018-06-02T14:37:24.401Z,100881
2018-06-02T14:39:52.606Z,100882
2018-06-02T14:42:20.793Z,100884
2018-06-02T14:44:49.842Z,100888
2018-06-02T14:47:18.022Z,100887
2018-06-02T14:49:47.254Z,100877
2018-06-02T14:52:16.138Z,100870
2018-06-02T14:54:44.315Z,100880
2018-06-02T14:57:12.501Z,100882
2018-06-02T14:59:40.684Z,100882
2018-06-02T15:02:09.638Z,100875
2018-06-02T15:04:37.803Z,100875
2018-06-02T15:07:05.972Z,100877
2018-06-02T15:09:34.161Z,100871
2018-06-02T15:12:02.348Z,100873
2018-06-02T15:14:30.525Z,100878
2018-06-02T15:16:58.733Z,100759
2018-06-02T15:19:27.722Z,100872
2018-06-02T15:21:56.672Z,100869
2018-06-02T15:24:24.856Z,100867
2018-06-02T15:26:53.275Z,100869
2018-06-02T15:41:21.065Z,100878
2018-06-02T15:43:49.248Z,100879
2018-06-02T15:46:39.243Z,100882
2018-06-02T15:49:25.353Z,100887
2018-06-02T15:55:07.437Z,100888
2018-06-02T16:00:38.884Z,100894
2018-06-02T16:03:20.390Z,100894
2018-06-02T16:06:01.944Z,100910
2018-06-02T16:11:42.451Z,100901
2018-06-02T16:14:15.031Z,100903
2018-06-02T16:16:44.069Z,100906
2018-06-02T16:19:12.249Z,100904
2018-06-02T16:21:40.783Z,100903
2018-06-02T16:32:47.999Z,100899
2018-06-02T16:35:16.141Z,100900
2018-06-02T16:37:57.069Z,100922
2018-06-02T16:40:25.327Z,100894
2018-06-02T16:42:53.561Z,100892
2018-06-02T16:45:21.763Z,100899
2018-06-02T16:47:50.050Z,100893
2018-06-02T16:50:18.239Z,100897
2018-06-02T16:52:46.468Z,100899
2018-06-02T16:55:14.639Z,100893
2018-06-02T16:57:42.807Z,100893
2018-06-02T17:00:12.817Z,100902
2018-06-02T17:02:43.785Z,100901
2018-06-02T17:05:11.957Z,100899
2018-06-02T17:07:40.285Z,100903
2018-06-02T17:10:09.249Z,100907
2018-06-02T17:12:37.566Z,100904
2018-06-02T17:15:06.489Z,100905
2018-06-02T17:17:35.746Z,100908
2018-06-02T17:20:04.139Z,100914
2018-06-02T17:22:33.047Z,100908
2018-06-02T17:25:01.251Z,100904
2018-06-02T17:27:29.424Z,100904
2018-06-02T17:29:57.640Z,100903
2018-06-02T17:32:26.563Z,100909
2018-06-02T17:34:54.736Z,100910
2018-06-02T17:37:22.889Z,100906
2018-06-02T17:39:51.196Z,100910
2018-06-02T17:42:20.518Z,100901
2018-06-02T17:44:48.800Z,100894
2018-06-02T17:47:17.791Z,100908
2018-06-02T17:49:46.150Z,100906
2018-06-02T17:52:14.458Z,100913
2018-06-02T17:54:42.617Z,100914
2018-06-02T17:57:10.789Z,100913
2018-06-02T17:59:38.964Z,100918
2018-06-02T18:02:07.172Z,100916
2018-06-02T18:04:36.182Z,100917
2018-06-02T18:07:04.394Z,100924
2018-06-02T18:09:33.213Z,100922
2018-06-02T18:12:02.160Z,100921
2018-06-02T18:14:30.331Z,100922
2018-06-02T18:16:58.525Z,100919
2018-06-02T18:19:26.746Z,100917
2018-06-02T18:21:55.079Z,100915
2018-06-02T18:24:23.538Z,100919
2018-06-02T18:26:54.339Z,100923
2018-06-02T18:29:23.846Z,100929
2018-06-02T18:31:52.167Z,100927
2018-06-02T18:34:21.298Z,100920
2018-06-02T18:36:49.610Z,100931
2018-06-02T18:39:17.816Z,100930
2018-06-02T18:41:45.973Z,100941
2018-06-02T18:44:14.168Z,100944
2018-06-02T18:46:42.503Z,100946
2018-06-02T18:49:10.665Z,100939
2018-06-02T18:51:38.873Z,100941
2018-06-02T18:54:10.115Z,100934
2018-06-02T18:56:38.542Z,100938
2018-06-02T18:59:06.902Z,100943
2018-06-02T19:01:35.096Z,100944
2018-06-02T19:04:04.051Z,100942
2018-06-02T19:06:33.305Z,100938
2018-06-02T19:09:01.605Z,100946
2018-06-02T19:11:29.812Z,100939
2018-06-02T19:13:58.845Z,100939
2018-06-02T19:16:27.045Z,100950
2018-06-02T19:18:55.318Z,100949
2018-06-02T19:21:23.480Z,100952
2018-06-02T19:23:51.680Z,100951
2018-06-02T19:26:20.048Z,100946
2018-06-02T19:28:48.921Z,100959
2018-06-02T19:31:17.137Z,100949
2018-06-02T19:33:45.318Z,100961
2018-06-02T19:36:13.476Z,100962
2018-06-02T19:38:46.866Z,100962
2018-06-02T19:41:15.061Z,100963
2018-06-02T19:43:43.999Z,100966
2018-06-02T19:46:12.149Z,100967
2018-06-02T19:48:40.332Z,100963
2018-06-02T19:51:08.530Z,100958
2018-06-02T19:53:36.761Z,100966
2018-06-02T19:56:04.961Z,100968
2018-06-02T19:58:33.443Z,100962
2018-06-02T20:01:01.620Z,100966
2018-06-02T20:03:29.896Z,100968
2018-06-02T20:05:58.061Z,100973
2018-06-02T20:08:26.223Z,100969
2018-06-02T20:10:54.417Z,100971
2018-06-02T20:13:22.648Z,100974
2018-06-02T20:15:51.581Z,100979
2018-06-02T20:18:20.523Z,100977
2018-06-02T20:20:48.679Z,100974
2018-06-02T20:23:16.873Z,100976
2018-06-02T20:25:45.910Z,100972
2018-06-02T20:28:14.151Z,100970
2018-06-02T20:30:43.084Z,100973
2018-06-02T20:33:11.325Z,100971
2018-06-02T20:35:40.281Z,100974
2018-06-02T20:38:09.430Z,100973
2018-06-02T20:41:00.825Z,100975
2018-06-02T20:46:28.464Z,100976
2018-06-02T20:52:03.652Z,100986
2018-06-02T20:54:32.478Z,100986
2018-06-02T20:57:01.524Z,100989
2018-06-02T20:59:43.063Z,100991
2018-06-02T21:02:14.605Z,100989
2018-06-02T21:07:29.522Z,100989
2018-06-02T21:09:58.921Z,100989
2018-06-02T21:12:27.863Z,101001
2018-06-02T21:14:56.037Z,100994
2018-06-02T21:17:24.975Z,100991
2018-06-02T21:19:53.790Z,100994
2018-06-02T21:22:22.816Z,100984
2018-06-02T21:24:52.341Z,100992
2018-06-02T21:27:21.060Z,100996
2018-06-02T21:29:49.352Z,100994
2018-06-02T21:32:18.396Z,100990
2018-06-02T21:34:46.900Z,100989
2018-06-02T21:37:15.085Z,100990
2018-06-02T21:39:50.986Z,100989
2018-06-02T21:45:12.312Z,100999
2018-06-02T21:47:53.080Z,101000
2018-06-02T21:50:27.435Z,101011
2018-06-02T21:52:57.086Z,101013
2018-06-02T21:55:25.787Z,101012
2018-06-02T21:57:55.579Z,101011
2018-06-02T22:00:24.714Z,101008
2018-06-02T22:02:53.425Z,101000
2018-06-02T22:05:21.590Z,101005
2018-06-02T22:07:49.823Z,101007
2018-06-02T22:10:18.001Z,101010
2018-06-02T22:12:47.152Z,101014
2018-06-02T22:15:15.342Z,101015
2018-06-02T22:17:43.495Z,101012
2018-06-02T22:20:11.682Z,101026
2018-06-02T22:22:44.187Z,101011
2018-06-02T22:27:54.893Z,101010
2018-06-02T22:30:23.203Z,101002
2018-06-02T22:32:51.453Z,101012
2018-06-02T22:35:20.697Z,101005
2018-06-02T22:37:49.672Z,101014
2018-06-02T22:40:17.872Z,101014
2018-06-02T22:42:47.003Z,101002
2018-06-02T22:45:15.285Z,100996
2018-06-02T22:47:45.105Z,101001
2018-06-02T22:50:14.175Z,101003
2018-06-02T22:52:42.489Z,101002
2018-06-02T22:55:11.534Z,101009
2018-06-02T22:57:39.774Z,101003
2018-06-02T23:00:08.136Z,101003
2018-06-02T23:02:36.378Z,101013
2018-06-02T23:05:05.082Z,101013
2018-06-02T23:07:33.767Z,101002
2018-06-02T23:10:01.939Z,101005
2018-06-02T23:12:30.176Z,101004
2018-06-02T23:14:58.379Z,101013
2018-06-02T23:17:26.589Z,101010
2018-06-02T23:19:56.024Z,101017
2018-06-02T23:22:39.504Z,101025
2018-06-02T23:25:17.514Z,101019
2018-06-02T23:27:52.478Z,101009
2018-06-02T23:30:35.434Z,101015
2018-06-02T23:33:07.484Z,101011
2018-06-02T23:35:35.710Z,101001
2018-06-02T23:41:26.642Z,101008
2018-06-02T23:43:55.719Z,101011
2018-06-02T23:46:25.025Z,101014
2018-06-02T23:51:34.122Z,101006
2018-06-02T23:54:02.283Z,101004
2018-06-02T23:56:30.469Z,101007
2018-06-02T23:58:58.633Z,101014
